createdAt,value
2022-08-26T00:00:04.453Z,28.57
2022-08-26T00:02:42.390Z,27.47
2022-08-26T00:05:12.332Z,34.50
2022-08-26T00:07:41.989Z,20.63
2022-08-26T00:10:14.266Z,22.53
2022-08-26T00:12:44.377Z,24.67
2022-08-26T00:15:19.190Z,17.40
2022-08-26T00:17:50.277Z,30.10
2022-08-26T00:20:24.401Z,26.30
2022-08-26T00:22:56.010Z,31.93
2022-08-26T00:25:26.109Z,24.33
2022-08-26T00:27:56.078Z,27.93
2022-08-26T00:30:31.709Z,19.60
2022-08-26T00:33:01.740Z,23.50
2022-08-26T00:35:33.547Z,34.73
2022-08-26T00:38:04.145Z,30.90
2022-08-26T00:40:36.827Z,26.00
2022-08-26T00:43:09.621Z,19.07
2022-08-26T00:45:49.651Z,21.60
2022-08-26T00:48:22.982Z,26.33
2022-08-26T00:50:57.482Z,23.63
2022-08-26T00:53:31.053Z,32.53
2022-08-26T00:56:06.715Z,23.80
2022-08-26T00:58:37.201Z,25.23
2022-08-26T01:01:09.578Z,25.17
2022-08-26T01:03:40.589Z,21.43
2022-08-26T01:06:13.136Z,19.97
2022-08-26T01:08:43.516Z,30.53
2022-08-26T01:11:15.254Z,25.53
2022-08-26T01:13:47.561Z,33.00
2022-08-26T01:16:19.937Z,26.80
2022-08-26T01:18:50.679Z,32.27
2022-08-26T01:21:29.428Z,25.90
2022-08-26T01:24:02.901Z,25.20
2022-08-26T01:26:35.123Z,21.67
2022-08-26T01:29:09.038Z,29.27
2022-08-26T01:31:46.004Z,31.97
2022-08-26T01:34:20.608Z,27.83
2022-08-26T01:36:51.801Z,18.83
2022-08-26T01:39:24.361Z,22.27
2022-08-26T01:41:58.454Z,29.07
2022-08-26T01:44:37.423Z,26.87
2022-08-26T01:47:09.499Z,28.53
2022-08-26T01:49:40.252Z,22.63
2022-08-26T01:52:12.614Z,27.43
2022-08-26T01:54:46.281Z,30.20
2022-08-26T01:57:21.378Z,26.97
2022-08-26T01:59:52.426Z,30.63
2022-08-26T02:02:22.136Z,25.03
2022-08-26T02:05:00.001Z,31.30
2022-08-26T02:07:30.709Z,29.93
2022-08-26T02:10:07.078Z,32.90
2022-08-26T02:12:37.150Z,29.00
2022-08-26T02:15:12.247Z,28.23
2022-08-26T02:17:47.323Z,27.27
2022-08-26T02:20:20.869Z,21.67
2022-08-26T02:22:50.965Z,24.30
2022-08-26T02:25:28.032Z,21.37
2022-08-26T02:27:58.839Z,35.00
2022-08-26T02:30:32.078Z,35.47
2022-08-26T02:33:03.986Z,40.90
2022-08-26T02:35:36.651Z,31.97
2022-08-26T02:38:09.810Z,33.10
2022-08-26T02:40:44.980Z,22.63
2022-08-26T02:43:15.044Z,21.13
2022-08-26T02:45:45.994Z,24.90
2022-08-26T02:48:18.748Z,32.00
2022-08-26T02:50:49.069Z,29.47
2022-08-26T02:53:25.047Z,21.80
2022-08-26T02:55:57.974Z,30.43
2022-08-26T02:58:29.587Z,24.40
2022-08-26T03:00:59.632Z,32.03
2022-08-26T03:03:32.046Z,26.80
2022-08-26T03:06:02.294Z,38.27
2022-08-26T03:08:32.018Z,28.53
2022-08-26T03:11:04.360Z,23.83
2022-08-26T03:13:36.314Z,34.03
2022-08-26T03:16:07.090Z,29.60
2022-08-26T03:18:37.250Z,29.03
2022-08-26T03:21:11.849Z,29.00
2022-08-26T03:23:43.694Z,29.53
2022-08-26T03:26:17.754Z,28.60
2022-08-26T03:28:59.730Z,40.40
2022-08-26T03:31:29.551Z,30.20
2022-08-26T03:33:59.958Z,24.33
2022-08-26T03:36:29.815Z,24.23
2022-08-26T03:38:59.956Z,40.90
2022-08-26T03:41:32.853Z,24.37
2022-08-26T03:44:02.553Z,30.13
2022-08-26T03:46:34.614Z,25.23
2022-08-26T03:49:05.889Z,27.80
2022-08-26T03:51:38.850Z,32.90
2022-08-26T03:54:10.237Z,28.70
2022-08-26T03:56:42.474Z,26.70
2022-08-26T03:59:16.357Z,29.40
2022-08-26T04:01:46.120Z,32.13
2022-08-26T04:04:18.270Z,29.90
2022-08-26T04:06:52.803Z,28.70
2022-08-26T04:09:23.355Z,26.93
2022-08-26T04:11:58.657Z,25.63
2022-08-26T04:14:31.216Z,28.40
2022-08-26T04:17:04.966Z,24.80
2022-08-26T04:19:35.992Z,27.13
2022-08-26T04:22:05.690Z,26.83
2022-08-26T04:24:36.308Z,28.93
2022-08-26T04:27:10.330Z,22.43
2022-08-26T04:29:41.603Z,28.83
2022-08-26T04:32:11.384Z,24.57
2022-08-26T04:34:41.934Z,25.17
2022-08-26T04:37:11.978Z,25.07
2022-08-26T04:39:41.661Z,31.77
2022-08-26T04:42:14.001Z,28.73
2022-08-26T04:44:43.654Z,27.13
2022-08-26T04:47:13.346Z,24.93
2022-08-26T04:49:43.173Z,27.57
2022-08-26T04:52:13.024Z,37.03
2022-08-26T04:54:42.714Z,30.67
2022-08-26T04:57:16.181Z,32.60
2022-08-26T04:59:45.811Z,26.23
2022-08-26T05:02:15.777Z,25.70
2022-08-26T05:04:45.539Z,32.70
2022-08-26T05:07:15.259Z,22.87
2022-08-26T05:09:47.399Z,32.77
2022-08-26T05:12:20.755Z,32.67
2022-08-26T05:14:50.502Z,35.57
2022-08-26T05:17:21.669Z,29.87
2022-08-26T05:19:52.251Z,32.07
2022-08-26T05:22:22.734Z,28.57
2022-08-26T05:24:52.637Z,27.63
2022-08-26T05:27:25.972Z,40.87
2022-08-26T05:30:00.038Z,36.30
2022-08-26T05:32:31.775Z,37.37
2022-08-26T05:35:01.508Z,42.67
2022-08-26T05:37:32.264Z,29.07
2022-08-26T05:40:02.173Z,30.17
2022-08-26T05:42:36.351Z,41.10
2022-08-26T05:45:07.370Z,28.77
2022-08-26T05:47:43.074Z,24.73
2022-08-26T05:50:13.861Z,32.20
2022-08-26T05:52:46.092Z,29.90
2022-08-26T05:55:23.871Z,32.07
2022-08-26T05:57:57.605Z,31.47
2022-08-26T06:00:28.413Z,43.97
2022-08-26T06:02:58.623Z,25.77
2022-08-26T06:05:35.372Z,31.53
2022-08-26T06:08:16.309Z,38.87
2022-08-26T06:10:50.982Z,26.47
2022-08-26T06:13:30.318Z,30.40
2022-08-26T06:16:08.481Z,40.87
2022-08-26T06:18:42.157Z,39.33
2022-08-26T06:21:20.153Z,26.47
2022-08-26T06:24:04.141Z,33.40
2022-08-26T06:26:36.594Z,28.83
2022-08-26T06:29:24.109Z,28.83
2022-08-26T06:31:56.404Z,23.13
2022-08-26T06:34:29.880Z,27.80
2022-08-26T06:37:03.717Z,29.93
2022-08-26T06:39:34.133Z,27.93
2022-08-26T06:42:07.305Z,33.90
2022-08-26T06:44:41.732Z,27.90
2022-08-26T06:47:15.560Z,38.30
2022-08-26T06:49:46.265Z,23.77
2022-08-26T06:52:22.956Z,32.97
2022-08-26T06:54:54.430Z,34.23
2022-08-26T06:57:25.199Z,23.93
2022-08-26T06:59:57.527Z,28.40
2022-08-26T07:02:28.599Z,28.93
2022-08-26T07:04:59.758Z,32.93
2022-08-26T07:07:29.627Z,23.53
2022-08-26T07:09:59.842Z,21.73
2022-08-26T07:12:29.911Z,22.23
2022-08-26T07:15:03.370Z,31.60
2022-08-26T07:17:35.283Z,32.17
2022-08-26T07:20:07.344Z,21.47
2022-08-26T07:22:43.814Z,24.60
2022-08-26T07:25:13.592Z,33.30
2022-08-26T07:27:43.285Z,28.80
2022-08-26T07:30:17.109Z,30.67
2022-08-26T07:32:46.888Z,35.03
2022-08-26T07:35:16.995Z,32.60
2022-08-26T07:37:47.098Z,27.80
2022-08-26T07:40:16.894Z,29.77
2022-08-26T07:42:47.670Z,27.13
2022-08-26T07:45:22.197Z,35.33
2022-08-26T07:47:53.048Z,32.60
2022-08-26T07:50:47.090Z,29.70
2022-08-26T07:53:14.606Z,51.93
2022-08-26T07:55:47.935Z,41.00
2022-08-26T07:58:18.546Z,29.73
2022-08-26T08:00:51.481Z,42.50
2022-08-26T08:03:27.118Z,28.93
2022-08-26T08:05:56.862Z,25.13
2022-08-26T08:08:29.297Z,29.73
2022-08-26T08:10:59.763Z,24.50
2022-08-26T08:13:29.697Z,31.20
2022-08-26T08:16:01.953Z,36.37
2022-08-26T08:18:31.671Z,42.07
2022-08-26T08:21:21.377Z,32.47
2022-08-26T08:23:55.482Z,30.33
2022-08-26T08:26:27.314Z,21.73
2022-08-26T08:28:59.053Z,33.83
2022-08-26T08:34:25.910Z,27.00
2022-08-26T08:36:56.530Z,34.80
2022-08-26T08:39:26.976Z,34.83
2022-08-26T08:42:31.537Z,35.00
2022-08-26T08:45:04.534Z,29.63
2022-08-26T08:47:42.135Z,33.80
2022-08-26T08:50:24.564Z,31.37
2022-08-26T08:53:05.791Z,32.17
2022-08-26T08:55:46.364Z,23.93
2022-08-26T08:58:21.927Z,23.60
2022-08-26T09:01:00.779Z,25.97
2022-08-26T09:03:56.845Z,32.17
2022-08-26T09:06:30.581Z,27.67
2022-08-26T09:09:02.746Z,25.80
2022-08-26T09:11:33.801Z,30.73
2022-08-26T09:14:03.646Z,31.40
2022-08-26T09:16:43.981Z,28.60
2022-08-26T09:19:24.207Z,28.63
2022-08-26T09:21:58.116Z,33.23
2022-08-26T09:24:32.166Z,30.73
2022-08-26T09:27:01.961Z,22.30
2022-08-26T09:29:36.089Z,31.07
2022-08-26T09:32:24.170Z,27.50
2022-08-26T09:35:03.327Z,31.97
2022-08-26T09:37:40.088Z,32.07
2022-08-26T09:40:20.705Z,32.70
2022-08-26T09:43:09.373Z,18.87
2022-08-26T09:45:40.045Z,35.73
2022-08-26T09:48:11.300Z,30.07
2022-08-26T09:50:57.385Z,19.70
2022-08-26T09:53:30.476Z,29.10
2022-08-26T09:56:18.052Z,20.63
2022-08-26T09:58:50.151Z,30.07
2022-08-26T10:01:32.209Z,28.03
2022-08-26T10:04:10.947Z,34.20
2022-08-26T10:06:59.271Z,22.03
2022-08-26T10:09:31.487Z,28.43
2022-08-26T10:12:06.749Z,43.73
2022-08-26T10:14:48.922Z,29.20
2022-08-26T10:17:32.730Z,30.13
2022-08-26T10:20:22.653Z,26.80
2022-08-26T10:23:02.393Z,33.60
2022-08-26T10:25:37.426Z,28.13
2022-08-26T10:28:14.729Z,44.07
2022-08-26T10:30:49.799Z,44.60
2022-08-26T10:33:20.078Z,22.20
2022-08-26T10:35:54.306Z,33.67
2022-08-26T10:38:32.157Z,37.93
2022-08-26T10:41:10.335Z,28.37
2022-08-26T10:43:45.705Z,28.50
2022-08-26T10:46:27.312Z,36.00
2022-08-26T10:49:01.047Z,36.90
2022-08-26T10:51:38.740Z,31.67
2022-08-26T10:54:18.226Z,27.63
2022-08-26T10:56:58.172Z,28.30
2022-08-26T10:59:43.676Z,26.57
2022-08-26T11:02:24.708Z,20.07
2022-08-26T11:05:00.050Z,23.50
2022-08-26T11:07:39.375Z,35.17
2022-08-26T11:10:34.667Z,33.00
2022-08-26T11:13:08.331Z,33.40
2022-08-26T11:16:01.522Z,29.53
2022-08-26T11:18:56.113Z,18.10
2022-08-26T11:21:54.494Z,32.60
2022-08-26T11:24:54.253Z,20.73
2022-08-26T11:27:56.074Z,27.60
2022-08-26T11:30:55.485Z,28.67
2022-08-26T11:34:01.406Z,29.80
2022-08-26T11:36:42.802Z,29.13
2022-08-26T11:39:21.560Z,25.33
2022-08-26T11:41:53.836Z,21.13
2022-08-26T11:44:25.621Z,23.23
2022-08-26T11:47:01.195Z,19.00
2022-08-26T11:49:33.322Z,26.13
2022-08-26T11:52:22.140Z,42.67
2022-08-26T11:55:06.632Z,36.07
2022-08-26T11:57:38.892Z,24.10
2022-08-26T12:00:12.546Z,19.77
2022-08-26T12:02:46.970Z,15.60
2022-08-26T12:05:21.692Z,17.47
2022-08-26T12:07:54.866Z,21.90
2022-08-26T12:10:31.940Z,35.73
2022-08-26T12:13:03.123Z,30.30
2022-08-26T12:15:34.972Z,28.00
2022-08-26T12:18:28.899Z,24.67
2022-08-26T12:21:02.173Z,16.40
2022-08-26T12:23:43.399Z,31.80
2022-08-26T12:26:22.576Z,17.60
2022-08-26T12:28:57.601Z,32.97
2022-08-26T12:31:34.079Z,41.10
2022-08-26T12:34:17.678Z,24.13
2022-08-26T12:36:50.390Z,26.53
2022-08-26T12:39:29.402Z,26.80
2022-08-26T12:42:01.138Z,28.10
2022-08-26T12:44:39.026Z,25.00
2022-08-26T12:47:12.096Z,18.30
2022-08-26T12:49:47.983Z,27.23
2022-08-26T12:52:30.108Z,16.47
2022-08-26T12:55:03.015Z,19.10
2022-08-26T12:57:36.290Z,18.37
2022-08-26T13:00:42.049Z,16.47
2022-08-26T13:03:34.171Z,25.20
2022-08-26T13:06:31.587Z,25.10
2022-08-26T13:09:05.661Z,28.13
2022-08-26T13:11:37.999Z,25.10
2022-08-26T13:14:11.311Z,21.93
2022-08-26T13:16:43.012Z,35.33
2022-08-26T13:19:15.549Z,16.63
2022-08-26T13:21:53.877Z,13.63
2022-08-26T13:24:28.728Z,8.67
2022-08-26T13:26:58.727Z,9.43
2022-08-26T13:29:28.634Z,16.30
2022-08-26T13:31:59.555Z,6.50
2022-08-26T13:34:29.845Z,7.63
2022-08-26T13:37:02.382Z,6.97
2022-08-26T13:39:32.033Z,6.77
2022-08-26T13:42:01.931Z,11.70
2022-08-26T13:44:32.616Z,13.73
2022-08-26T13:47:02.588Z,9.93
2022-08-26T13:49:33.241Z,11.87
2022-08-26T13:52:06.933Z,12.43
2022-08-26T13:54:36.850Z,12.77
2022-08-26T13:57:06.950Z,9.47
2022-08-26T13:59:36.677Z,16.30
2022-08-26T14:02:07.878Z,9.50
2022-08-26T14:04:39.985Z,7.83
2022-08-26T14:07:16.870Z,8.70
2022-08-26T14:09:47.510Z,12.87
2022-08-26T14:12:19.659Z,9.60
2022-08-26T14:14:50.377Z,8.53
2022-08-26T14:17:23.597Z,9.27
2022-08-26T14:19:53.703Z,11.00
2022-08-26T14:22:27.004Z,7.90
2022-08-26T14:24:58.641Z,10.57
2022-08-26T14:27:28.476Z,10.37
2022-08-26T14:29:59.494Z,9.55
2022-08-26T14:32:32.228Z,8.25
2022-08-26T14:35:01.901Z,8.40
2022-08-26T14:37:34.583Z,10.57
2022-08-26T14:40:05.943Z,7.13
2022-08-26T14:42:35.914Z,14.93
2022-08-26T14:45:11.436Z,11.23
2022-08-26T14:47:41.112Z,10.00
2022-08-26T14:50:12.631Z,10.10
2022-08-26T14:52:59.332Z,12.90
2022-08-26T14:55:29.364Z,10.07
2022-08-26T14:57:59.023Z,10.67
2022-08-26T15:00:29.127Z,8.60
2022-08-26T15:02:58.953Z,11.63
2022-08-26T15:05:28.892Z,9.07
2022-08-26T15:08:02.685Z,17.33
2022-08-26T15:10:33.449Z,14.07
2022-08-26T15:13:05.039Z,14.67
2022-08-26T15:15:35.699Z,22.83
2022-08-26T15:18:06.917Z,14.43
2022-08-26T15:20:37.609Z,15.87
2022-08-26T15:23:11.198Z,11.90
2022-08-26T15:25:41.056Z,14.13
2022-08-26T15:28:11.803Z,13.10
2022-08-26T15:30:43.142Z,16.10
2022-08-26T15:33:15.285Z,14.17
2022-08-26T15:35:46.540Z,15.40
2022-08-26T15:38:18.822Z,16.87
2022-08-26T15:40:48.447Z,19.43
2022-08-26T15:43:28.169Z,17.10
2022-08-26T15:45:58.769Z,13.13
2022-08-26T15:48:29.259Z,13.30
2022-08-26T15:51:01.863Z,19.77
2022-08-26T15:53:36.767Z,10.23
2022-08-26T15:56:06.670Z,14.57
2022-08-26T15:58:37.896Z,10.70
2022-08-26T16:01:07.928Z,15.77
2022-08-26T16:03:37.831Z,13.93
2022-08-26T16:06:08.223Z,13.77
2022-08-26T16:08:42.008Z,16.13
2022-08-26T16:11:11.802Z,20.23
2022-08-26T16:13:41.475Z,16.70
2022-08-26T16:16:11.267Z,18.60
2022-08-26T16:18:42.286Z,12.70
2022-08-26T16:21:14.126Z,14.80
2022-08-26T16:23:47.822Z,15.70
2022-08-26T16:26:20.715Z,23.73
2022-08-26T16:28:50.388Z,21.27
2022-08-26T16:31:21.245Z,12.50
2022-08-26T16:33:51.448Z,15.53
2022-08-26T16:36:21.350Z,13.70
2022-08-26T16:38:56.531Z,11.87
2022-08-26T16:41:28.016Z,25.37
2022-08-26T16:43:58.683Z,16.80
2022-08-26T16:46:31.552Z,17.83
2022-08-26T16:49:03.967Z,14.50
2022-08-26T16:51:37.822Z,19.37
2022-08-26T16:54:11.332Z,17.90
2022-08-26T16:56:41.633Z,9.30
2022-08-26T16:59:13.549Z,12.70
2022-08-26T17:01:43.233Z,10.13
2022-08-26T17:04:13.905Z,9.13
2022-08-26T17:06:43.695Z,8.43
2022-08-26T17:09:17.128Z,8.00
2022-08-26T17:11:47.832Z,9.97
2022-08-26T17:14:17.484Z,15.60
2022-08-26T17:16:51.133Z,12.07
2022-08-26T17:19:21.710Z,8.13
2022-08-26T17:21:52.327Z,17.47
2022-08-26T17:24:24.554Z,11.57
2022-08-26T17:26:55.629Z,12.37
2022-08-26T17:29:26.524Z,12.50
2022-08-26T17:31:56.435Z,12.17
2022-08-26T17:34:26.599Z,13.03
2022-08-26T17:36:57.492Z,7.03
2022-08-26T17:39:29.651Z,8.50
2022-08-26T17:42:06.074Z,13.73
2022-08-26T17:44:36.737Z,10.70
2022-08-26T17:47:08.316Z,10.97
2022-08-26T17:49:39.031Z,9.10
2022-08-26T17:52:11.668Z,12.10
2022-08-26T17:54:44.159Z,10.07
2022-08-26T17:57:13.793Z,19.50
2022-08-26T17:59:43.609Z,12.27
2022-08-26T18:02:13.240Z,14.40
2022-08-26T18:04:43.839Z,14.13
2022-08-26T18:07:13.884Z,18.30
2022-08-26T18:09:46.423Z,20.27
2022-08-26T18:12:17.839Z,23.57
2022-08-26T18:14:48.503Z,17.13
2022-08-26T18:17:19.399Z,16.87
2022-08-26T18:19:50.181Z,19.50
2022-08-26T18:22:21.885Z,14.73
2022-08-26T18:24:59.230Z,14.60
2022-08-26T18:27:30.197Z,17.17
2022-08-26T18:30:00.062Z,17.30
2022-08-26T18:32:31.652Z,24.87
2022-08-26T18:35:02.451Z,21.03
2022-08-26T18:37:34.231Z,22.50
2022-08-26T18:40:07.295Z,18.93
2022-08-26T18:42:37.506Z,19.70
2022-08-26T18:45:08.853Z,34.03
2022-08-26T18:47:39.534Z,23.33
2022-08-26T18:50:11.675Z,24.07
2022-08-26T18:52:42.273Z,23.20
2022-08-26T18:55:14.444Z,28.67
2022-08-26T18:57:47.220Z,26.80
2022-08-26T19:00:17.770Z,31.27
2022-08-26T19:02:51.902Z,37.50
2022-08-26T19:05:25.536Z,40.33
2022-08-26T19:07:57.179Z,34.03
2022-08-26T19:10:32.826Z,38.53
2022-08-26T19:13:03.653Z,32.80
2022-08-26T19:15:40.346Z,36.40
2022-08-26T19:18:11.382Z,38.20
2022-08-26T19:20:46.416Z,46.30
2022-08-26T19:23:31.299Z,33.33
2022-08-26T19:26:09.019Z,41.30
2022-08-26T19:28:42.888Z,35.70
2022-08-26T19:31:15.598Z,43.03
2022-08-26T19:33:46.634Z,44.57
2022-08-26T19:36:18.573Z,32.87
2022-08-26T19:38:51.148Z,37.03
2022-08-26T19:41:36.802Z,35.57
2022-08-26T19:44:12.948Z,36.03
2022-08-26T19:46:44.533Z,38.90
2022-08-26T19:49:14.140Z,33.30
2022-08-26T19:51:43.755Z,32.07
2022-08-26T19:54:14.382Z,26.40
2022-08-26T19:56:49.597Z,28.20
2022-08-26T19:59:20.039Z,19.13
2022-08-26T20:02:00.888Z,20.90
2022-08-26T20:04:31.244Z,14.33
2022-08-26T20:07:01.998Z,22.33
2022-08-26T20:09:34.038Z,14.00
2022-08-26T20:12:09.593Z,23.37
2022-08-26T20:14:39.451Z,13.47
2022-08-26T20:17:09.442Z,15.43
2022-08-26T20:19:52.882Z,19.07
2022-08-26T20:22:23.461Z,19.17
2022-08-26T20:24:54.455Z,17.43
2022-08-26T20:27:35.555Z,19.60
2022-08-26T20:30:10.438Z,23.90
2022-08-26T20:32:42.650Z,14.97
2022-08-26T20:35:14.904Z,15.60
2022-08-26T20:37:45.446Z,17.97
2022-08-26T20:40:17.493Z,15.50
2022-08-26T20:42:49.659Z,14.10
2022-08-26T20:45:19.478Z,12.00
2022-08-26T20:47:50.338Z,14.80
2022-08-26T20:50:21.065Z,11.17
2022-08-26T20:52:50.624Z,8.30
2022-08-26T20:55:20.268Z,9.43
2022-08-26T20:57:53.335Z,11.10
2022-08-26T21:00:27.088Z,12.10
2022-08-26T21:02:59.518Z,11.67
2022-08-26T21:05:29.492Z,16.13
2022-08-26T21:08:00.057Z,10.23
2022-08-26T21:10:31.486Z,9.73
2022-08-26T21:13:03.754Z,12.17
2022-08-26T21:15:34.535Z,10.43
2022-08-26T21:18:04.206Z,17.63
2022-08-26T21:20:35.186Z,14.93
2022-08-26T21:23:06.034Z,13.57
2022-08-26T21:25:36.662Z,14.57
2022-08-26T21:28:10.121Z,17.63
2022-08-26T21:30:41.672Z,13.03
2022-08-26T21:33:12.419Z,16.17
2022-08-26T21:35:42.054Z,13.50
2022-08-26T21:38:11.789Z,13.13
2022-08-26T21:40:41.508Z,9.83
2022-08-26T21:43:25.967Z,15.17
2022-08-26T21:46:12.612Z,12.20
2022-08-26T21:48:47.696Z,15.27
2022-08-26T21:51:22.307Z,16.60
2022-08-26T21:53:52.973Z,14.70
2022-08-26T21:56:25.481Z,17.83
2022-08-26T21:58:59.657Z,14.53
2022-08-26T22:01:32.525Z,15.33
2022-08-26T22:04:03.839Z,14.47
2022-08-26T22:06:36.147Z,23.63
2022-08-26T22:09:06.963Z,13.53
2022-08-26T22:11:37.881Z,14.80
2022-08-26T22:14:10.108Z,15.20
2022-08-26T22:16:39.768Z,18.57
2022-08-26T22:19:13.674Z,16.73
2022-08-26T22:21:46.885Z,23.10
2022-08-26T22:24:16.426Z,15.73
2022-08-26T22:26:46.126Z,14.23
2022-08-26T22:29:18.316Z,16.50
2022-08-26T22:31:48.402Z,16.10
2022-08-26T22:34:20.729Z,18.07
2022-08-26T22:36:51.891Z,17.90
2022-08-26T22:39:24.585Z,14.77
2022-08-26T22:41:55.263Z,17.53
2022-08-26T22:44:27.432Z,13.70
2022-08-26T22:46:57.036Z,18.80
2022-08-26T22:49:27.019Z,19.90
2022-08-26T22:51:56.780Z,24.03
2022-08-26T22:54:26.543Z,18.17
2022-08-26T22:56:56.064Z,16.47
2022-08-26T22:59:28.197Z,16.80
2022-08-26T23:01:57.739Z,15.13
2022-08-26T23:04:27.307Z,15.00
2022-08-26T23:06:57.001Z,14.60
2022-08-26T23:09:26.578Z,12.53
2022-08-26T23:11:56.605Z,13.33
2022-08-26T23:14:29.119Z,17.93
2022-08-26T23:16:58.804Z,20.63
2022-08-26T23:19:28.430Z,19.23
2022-08-26T23:21:58.126Z,17.07
2022-08-26T23:24:27.687Z,12.47
2022-08-26T23:26:57.253Z,16.40
2022-08-26T23:29:30.279Z,20.63
2022-08-26T23:32:00.338Z,12.60
2022-08-26T23:34:42.658Z,15.90
2022-08-26T23:37:12.319Z,17.40
2022-08-26T23:39:41.934Z,21.43
2022-08-26T23:42:12.458Z,20.43
2022-08-26T23:44:44.722Z,16.00
2022-08-26T23:47:15.571Z,14.67
2022-08-26T23:49:45.317Z,10.33
2022-08-26T23:52:27.432Z,17.60
2022-08-26T23:54:57.265Z,13.53
2022-08-26T23:57:28.289Z,20.67
